Northway Airport Northway US
ICAO: PAOR
IATA:
Category: Medium
Scheduled Services:

Elevation: 1715 ft
TransAlt. 18000 ft.

Airport Communications:
ASOS:135.4
ANCHORAGE CNTR:126.55
CTAF:123.6
RDO:122.2
SUAS INFO SVC:125.3

PAOR Zoom In..

If you have problems with the map follow the link
https://www.worldairports.se/pages/airport.php?
ICAO=PAOR

Runways:

(A) RW 05 length 5100 ft width 100 ft
---- / hdg 52

(B) RW 23 length 5100 ft width 100 ft
---- / hdg 232

Location; PAOR
Day. 27 / Time. 00.53 Zulu
* Altimeter: 29.44
* Temperature: -26° c. 14.8°f.
* Wind from: 000° Speed 00 kn.
Dewpoint: -31° c.
Visibility: 10 Statute Miles.
Clouds: Scattered 5000 ft.
Clouds: Scattered 7000 ft.

PAOR 270053Z 00000KT 10SM SCT050 SCT070 M26/M31 A2944 RMK AO2 SLP053 T12611306 PNO


Wind - Calm.

 
 
jpsmedia worldairports.se 2020   terms of use